sensor_id;sensor_type;location;lat;lon;timestamp;pressure;altitude;pressure_sealevel;temperature;humidity
74268;BME280;62638;51.362;12.472;2022-11-20T00:02:17;99994.94;;;-7.07;100.00
74268;BME280;62638;51.362;12.472;2022-11-20T00:04:42;99993.53;;;-7.18;100.00
74268;BME280;62638;51.362;12.472;2022-11-20T00:07:07;99986.78;;;-7.25;100.00
74268;BME280;62638;51.362;12.472;2022-11-20T00:09:33;99987.50;;;-7.20;100.00
74268;BME280;62638;51.362;12.472;2022-11-20T00:11:58;99992.69;;;-7.20;100.00
74268;BME280;62638;51.362;12.472;2022-11-20T00:14:23;99985.22;;;-7.32;100.00
74268;BME280;62638;51.362;12.472;2022-11-20T00:16:49;99986.25;;;-7.38;100.00
74268;BME280;62638;51.362;12.472;2022-11-20T00:19:14;99991.56;;;-7.43;100.00
74268;BME280;62638;51.362;12.472;2022-11-20T00:21:39;99987.13;;;-7.39;100.00
74268;BME280;62638;51.362;12.472;2022-11-20T00:24:05;99986.78;;;-6.62;100.00
74268;BME280;62638;51.362;12.472;2022-11-20T00:26:30;99988.97;;;-6.49;100.00
74268;BME280;62638;51.362;12.472;2022-11-20T00:28:58;99977.41;;;-6.11;100.00
74268;BME280;62638;51.362;12.472;2022-11-20T00:31:24;99985.13;;;-6.08;100.00
74268;BME280;62638;51.362;12.472;2022-11-20T00:33:50;99995.06;;;-6.20;100.00
74268;BME280;62638;51.362;12.472;2022-11-20T00:36:17;99984.66;;;-6.20;100.00
74268;BME280;62638;51.362;12.472;2022-11-20T00:38:44;99982.13;;;-5.69;100.00
74268;BME280;62638;51.362;12.472;2022-11-20T00:41:12;99980.97;;;-5.61;100.00
74268;BME280;62638;51.362;12.472;2022-11-20T00:43:37;99973.97;;;-5.59;100.00
74268;BME280;62638;51.362;12.472;2022-11-20T00:46:08;99980.53;;;-5.73;100.00
74268;BME280;62638;51.362;12.472;2022-11-20T00:48:34;99986.84;;;-6.07;100.00
74268;BME280;62638;51.362;12.472;2022-11-20T00:50:59;99984.84;;;-6.26;100.00
74268;BME280;62638;51.362;12.472;2022-11-20T00:53:25;99986.88;;;-6.36;100.00
74268;BME280;62638;51.362;12.472;2022-11-20T00:56:01;99981.97;;;-6.47;100.00
74268;BME280;62638;51.362;12.472;2022-11-20T00:58:34;99984.41;;;-6.70;100.00
74268;BME280;62638;51.362;12.472;2022-11-20T01:01:08;99981.53;;;-6.92;100.00
74268;BME280;62638;51.362;12.472;2022-11-20T01:03:36;99978.97;;;-6.93;100.00
74268;BME280;62638;51.362;12.472;2022-11-20T01:08:41;99972.28;;;-6.72;100.00
74268;BME280;62638;51.362;12.472;2022-11-20T01:11:19;99964.94;;;-6.88;100.00
74268;BME280;62638;51.362;12.472;2022-11-20T01:13:46;99970.94;;;-7.16;100.00
74268;BME280;62638;51.362;12.472;2022-11-20T01:16:16;99976.41;;;-7.27;100.00
74268;BME280;62638;51.362;12.472;2022-11-20T01:18:44;99971.56;;;-7.41;100.00
74268;BME280;62638;51.362;12.472;2022-11-20T01:21:12;99969.38;;;-7.56;100.00
74268;BME280;62638;51.362;12.472;2022-11-20T01:23:40;99977.34;;;-7.63;100.00
74268;BME280;62638;51.362;12.472;2022-11-20T01:26:08;99983.44;;;-7.64;100.00
74268;BME280;62638;51.362;12.472;2022-11-20T01:28:34;99981.63;;;-7.27;100.00
74268;BME280;62638;51.362;12.472;2022-11-20T01:31:00;99978.97;;;-7.25;100.00
74268;BME280;62638;51.362;12.472;2022-11-20T01:33:26;99978.19;;;-7.29;100.00
74268;BME280;62638;51.362;12.472;2022-11-20T01:35:52;99980.41;;;-7.14;100.00
74268;BME280;62638;51.362;12.472;2022-11-20T01:38:18;99975.63;;;-6.98;100.00
74268;BME280;62638;51.362;12.472;2022-11-20T01:40:45;99976.44;;;-6.65;100.00
74268;BME280;62638;51.362;12.472;2022-11-20T01:43:17;99983.19;;;-6.58;100.00
74268;BME280;62638;51.362;12.472;2022-11-20T01:46:17;99970.25;;;-6.32;100.00
74268;BME280;62638;51.362;12.472;2022-11-20T01:48:52;99972.88;;;-6.33;100.00
74268;BME280;62638;51.362;12.472;2022-11-20T01:51:30;99961.13;;;-5.91;100.00
74268;BME280;62638;51.362;12.472;2022-11-20T01:54:01;99952.63;;;-5.96;100.00
74268;BME280;62638;51.362;12.472;2022-11-20T01:56:29;99951.31;;;-5.83;100.00
74268;BME280;62638;51.362;12.472;2022-11-20T01:58:58;99939.50;;;-5.68;100.00
74268;BME280;62638;51.362;12.472;2022-11-20T02:01:25;99949.75;;;-5.62;100.00
74268;BME280;62638;51.362;12.472;2022-11-20T02:03:50;99941.97;;;-5.64;100.00
74268;BME280;62638;51.362;12.472;2022-11-20T02:06:29;99939.47;;;-5.67;100.00
74268;BME280;62638;51.362;12.472;2022-11-20T02:08:55;99946.13;;;-5.58;100.00
74268;BME280;62638;51.362;12.472;2022-11-20T02:11:21;99942.25;;;-5.46;100.00
74268;BME280;62638;51.362;12.472;2022-11-20T02:13:47;99939.22;;;-5.34;100.00
74268;BME280;62638;51.362;12.472;2022-11-20T02:16:18;99941.28;;;-5.18;100.00
74268;BME280;62638;51.362;12.472;2022-11-20T02:18:45;99936.41;;;-5.28;100.00
74268;BME280;62638;51.362;12.472;2022-11-20T02:24:12;99930.03;;;-5.44;100.00
74268;BME280;62638;51.362;12.472;2022-11-20T02:26:59;99929.47;;;-5.54;100.00
74268;BME280;62638;51.362;12.472;2022-11-20T02:29:42;99933.38;;;-5.41;100.00
74268;BME280;62638;51.362;12.472;2022-11-20T02:32:25;99932.66;;;-5.46;100.00
74268;BME280;62638;51.362;12.472;2022-11-20T02:34:51;99923.88;;;-5.43;100.00
74268;BME280;62638;51.362;12.472;2022-11-20T02:37:18;99929.59;;;-5.32;100.00
74268;BME280;62638;51.362;12.472;2022-11-20T02:39:46;99924.38;;;-5.32;100.00
74268;BME280;62638;51.362;12.472;2022-11-20T02:42:11;99925.97;;;-5.28;100.00
74268;BME280;62638;51.362;12.472;2022-11-20T02:44:37;99924.41;;;-5.34;100.00
74268;BME280;62638;51.362;12.472;2022-11-20T02:47:02;99925.97;;;-5.28;100.00
74268;BME280;62638;51.362;12.472;2022-11-20T02:49:28;99921.94;;;-5.37;100.00
74268;BME280;62638;51.362;12.472;2022-11-20T02:51:53;99923.88;;;-5.43;100.00
74268;BME280;62638;51.362;12.472;2022-11-20T02:54:18;99929.16;;;-5.45;100.00
74268;BME280;62638;51.362;12.472;2022-11-20T02:56:44;99924.56;;;-5.38;100.00
74268;BME280;62638;51.362;12.472;2022-11-20T02:59:09;99928.41;;;-5.48;100.00
74268;BME280;62638;51.362;12.472;2022-11-20T03:01:35;99919.66;;;-5.72;100.00
74268;BME280;62638;51.362;12.472;2022-11-20T03:04:01;99915.19;;;-5.69;100.00
74268;BME280;62638;51.362;12.472;2022-11-20T03:06:26;99917.00;;;-5.71;100.00
74268;BME280;62638;51.362;12.472;2022-11-20T03:08:51;99915.69;;;-5.84;100.00
74268;BME280;62638;51.362;12.472;2022-11-20T03:11:17;99915.56;;;-5.79;100.00
74268;BME280;62638;51.362;12.472;2022-11-20T03:13:42;99910.97;;;-5.73;100.00
74268;BME280;62638;51.362;12.472;2022-11-20T03:16:14;99901.25;;;-5.68;100.00
74268;BME280;62638;51.362;12.472;2022-11-20T03:18:41;99910.19;;;-5.75;100.00
74268;BME280;62638;51.362;12.472;2022-11-20T03:21:07;99902.22;;;-5.70;100.00
74268;BME280;62638;51.362;12.472;2022-11-20T03:23:33;99907.44;;;-5.70;100.00
74268;BME280;62638;51.362;12.472;2022-11-20T03:26:14;99910.63;;;-5.62;100.00
74268;BME280;62638;51.362;12.472;2022-11-20T03:28:41;99899.72;;;-5.48;100.00
74268;BME280;62638;51.362;12.472;2022-11-20T03:31:12;99909.00;;;-5.40;100.00
74268;BME280;62638;51.362;12.472;2022-11-20T03:33:39;99901.38;;;-5.46;100.00
74268;BME280;62638;51.362;12.472;2022-11-20T03:36:07;99897.97;;;-5.48;100.00
74268;BME280;62638;51.362;12.472;2022-11-20T03:38:33;99896.19;;;-5.47;100.00
74268;BME280;62638;51.362;12.472;2022-11-20T03:41:03;99886.13;;;-5.58;100.00
74268;BME280;62638;51.362;12.472;2022-11-20T03:43:28;99891.19;;;-5.78;100.00
74268;BME280;62638;51.362;12.472;2022-11-20T03:45:54;99887.91;;;-5.85;100.00
74268;BME280;62638;51.362;12.472;2022-11-20T03:48:19;99889.66;;;-5.85;100.00
74268;BME280;62638;51.362;12.472;2022-11-20T03:50:44;99887.16;;;-5.87;100.00
74268;BME280;62638;51.362;12.472;2022-11-20T03:53:12;99884.41;;;-5.84;100.00
74268;BME280;62638;51.362;12.472;2022-11-20T03:55:38;99874.88;;;-6.10;100.00
74268;BME280;62638;51.362;12.472;2022-11-20T03:58:03;99884.75;;;-6.19;100.00
74268;BME280;62638;51.362;12.472;2022-11-20T04:00:29;99878.47;;;-6.40;100.00
74268;BME280;62638;51.362;12.472;2022-11-20T04:02:57;99892.50;;;-6.46;100.00
74268;BME280;62638;51.362;12.472;2022-11-20T04:05:23;99894.19;;;-6.43;100.00
74268;BME280;62638;51.362;12.472;2022-11-20T04:07:48;99891.59;;;-6.43;100.00
74268;BME280;62638;51.362;12.472;2022-11-20T04:10:14;99893.16;;;-6.67;100.00
74268;BME280;62638;51.362;12.472;2022-11-20T04:12:39;99897.22;;;-6.86;100.00
74268;BME280;62638;51.362;12.472;2022-11-20T04:15:04;99897.63;;;-7.00;100.00
74268;BME280;62638;51.362;12.472;2022-11-20T04:17:30;99887.88;;;-6.93;100.00
74268;BME280;62638;51.362;12.472;2022-11-20T04:19:55;99886.56;;;-7.08;100.00
74268;BME280;62638;51.362;12.472;2022-11-20T04:22:21;99892.94;;;-7.18;100.00
74268;BME280;62638;51.362;12.472;2022-11-20T04:24:46;99886.38;;;-7.32;100.00
74268;BME280;62638;51.362;12.472;2022-11-20T04:27:11;99890.19;;;-7.44;100.00
74268;BME280;62638;51.362;12.472;2022-11-20T04:29:36;99893.63;;;-7.44;100.00
74268;BME280;62638;51.362;12.472;2022-11-20T04:32:02;99889.41;;;-7.48;100.00
74268;BME280;62638;51.362;12.472;2022-11-20T04:34:27;99890.31;;;-7.49;100.00
74268;BME280;62638;51.362;12.472;2022-11-20T04:36:52;99892.03;;;-7.49;100.00
74268;BME280;62638;51.362;12.472;2022-11-20T04:39:17;99892.94;;;-7.18;100.00
74268;BME280;62638;51.362;12.472;2022-11-20T04:41:43;99884.72;;;-7.04;100.00
74268;BME280;62638;51.362;12.472;2022-11-20T04:44:08;99879.34;;;-6.98;100.00
74268;BME280;62638;51.362;12.472;2022-11-20T04:46:36;99877.28;;;-6.87;100.00
74268;BME280;62638;51.362;12.472;2022-11-20T04:49:02;99879.56;;;-7.06;100.00
74268;BME280;62638;51.362;12.472;2022-11-20T04:51:28;99882.66;;;-7.22;100.00
74268;BME280;62638;51.362;12.472;2022-11-20T04:53:54;99875.34;;;-7.41;100.00
74268;BME280;62638;51.362;12.472;2022-11-20T04:56:19;99876.44;;;-7.49;100.00
74268;BME280;62638;51.362;12.472;2022-11-20T04:58:44;99879.09;;;-7.51;100.00
74268;BME280;62638;51.362;12.472;2022-11-20T05:01:12;99888.88;;;-7.60;100.00
74268;BME280;62638;51.362;12.472;2022-11-20T05:03:39;99882.75;;;-6.96;100.00
74268;BME280;62638;51.362;12.472;2022-11-20T05:06:05;99878.41;;;-6.66;100.00
74268;BME280;62638;51.362;12.472;2022-11-20T05:08:32;99876.88;;;-6.46;100.00
74268;BME280;62638;51.362;12.472;2022-11-20T05:11:08;99866.22;;;-6.38;100.00
74268;BME280;62638;51.362;12.472;2022-11-20T05:13:35;99870.34;;;-6.31;100.00
74268;BME280;62638;51.362;12.472;2022-11-20T05:16:04;99873.41;;;-6.18;100.00
74268;BME280;62638;51.362;12.472;2022-11-20T05:18:30;99876.06;;;-6.20;100.00
74268;BME280;62638;51.362;12.472;2022-11-20T05:20:56;99874.56;;;-6.27;100.00
74268;BME280;62638;51.362;12.472;2022-11-20T05:23:22;99859.69;;;-6.23;100.00
74268;BME280;62638;51.362;12.472;2022-11-20T05:25:47;99870.88;;;-6.48;100.00
74268;BME280;62638;51.362;12.472;2022-11-20T05:28:12;99871.06;;;-6.54;100.00
74268;BME280;62638;51.362;12.472;2022-11-20T05:30:37;99865.03;;;-6.28;100.00
74268;BME280;62638;51.362;12.472;2022-11-20T05:33:03;99867.00;;;-6.08;100.00
74268;BME280;62638;51.362;12.472;2022-11-20T05:35:28;99869.22;;;-5.96;100.00
74268;BME280;62638;51.362;12.472;2022-11-20T05:37:53;99860.47;;;-5.95;100.00
74268;BME280;62638;51.362;12.472;2022-11-20T05:40:19;99855.31;;;-5.97;100.00
74268;BME280;62638;51.362;12.472;2022-11-20T05:42:44;99850.72;;;-5.88;100.00
74268;BME280;62638;51.362;12.472;2022-11-20T05:45:09;99847.88;;;-5.82;100.00
74268;BME280;62638;51.362;12.472;2022-11-20T05:47:34;99840.69;;;-5.76;100.00
74268;BME280;62638;51.362;12.472;2022-11-20T05:50:00;99838.97;;;-5.77;100.00
74268;BME280;62638;51.362;12.472;2022-11-20T05:52:29;99835.47;;;-5.76;100.00
74268;BME280;62638;51.362;12.472;2022-11-20T05:54:55;99839.03;;;-5.78;100.00
74268;BME280;62638;51.362;12.472;2022-11-20T05:57:20;99838.34;;;-5.83;100.00
74268;BME280;62638;51.362;12.472;2022-11-20T05:59:45;99845.59;;;-5.91;100.00
74268;BME280;62638;51.362;12.472;2022-11-20T06:02:11;99832.28;;;-5.84;100.00
74268;BME280;62638;51.362;12.472;2022-11-20T06:04:36;99834.66;;;-5.78;100.00
74268;BME280;62638;51.362;12.472;2022-11-20T06:07:01;99837.16;;;-5.75;100.00
74268;BME280;62638;51.362;12.472;2022-11-20T06:09:27;99831.22;;;-5.78;100.00
74268;BME280;62638;51.362;12.472;2022-11-20T06:11:52;99837.78;;;-5.91;100.00
74268;BME280;62638;51.362;12.472;2022-11-20T06:14:17;99831.72;;;-5.92;100.00
74268;BME280;62638;51.362;12.472;2022-11-20T06:16:43;99841.63;;;-6.03;100.00
74268;BME280;62638;51.362;12.472;2022-11-20T06:19:08;99838.13;;;-6.02;100.00
74268;BME280;62638;51.362;12.472;2022-11-20T06:21:33;99835.22;;;-6.19;100.00
74268;BME280;62638;51.362;12.472;2022-11-20T06:23:58;99838.88;;;-6.25;100.00
74268;BME280;62638;51.362;12.472;2022-11-20T06:26:26;99837.78;;;-6.18;100.00
74268;BME280;62638;51.362;12.472;2022-11-20T06:28:52;99846.53;;;-6.20;100.00
74268;BME280;62638;51.362;12.472;2022-11-20T06:31:21;99836.63;;;-6.09;100.00
74268;BME280;62638;51.362;12.472;2022-11-20T06:33:47;99839.44;;;-6.15;100.00
74268;BME280;62638;51.362;12.472;2022-11-20T06:36:14;99837.78;;;-6.18;100.00
74268;BME280;62638;51.362;12.472;2022-11-20T06:38:40;99840.25;;;-6.13;100.00
74268;BME280;62638;51.362;12.472;2022-11-20T06:41:07;99845.59;;;-6.18;100.00
74268;BME280;62638;51.362;12.472;2022-11-20T06:43:35;99847.25;;;-6.15;100.00
74268;BME280;62638;51.362;12.472;2022-11-20T06:46:00;99848.75;;;-6.08;100.00
74268;BME280;62638;51.362;12.472;2022-11-20T06:48:27;99839.28;;;-6.11;100.00
74268;BME280;62638;51.362;12.472;2022-11-20T06:50:53;99833.81;;;-6.03;100.00
74268;BME280;62638;51.362;12.472;2022-11-20T06:53:18;99837.00;;;-5.95;100.00
74268;BME280;62638;51.362;12.472;2022-11-20T06:55:47;99837.38;;;-6.06;100.00
74268;BME280;62638;51.362;12.472;2022-11-20T06:58:14;99837.38;;;-6.06;100.00
74268;BME280;62638;51.362;12.472;2022-11-20T07:00:40;99835.91;;;-6.13;100.00
74268;BME280;62638;51.362;12.472;2022-11-20T07:03:07;99831.94;;;-6.00;100.00
74268;BME280;62638;51.362;12.472;2022-11-20T07:05:34;99833.00;;;-5.80;100.00
74268;BME280;62638;51.362;12.472;2022-11-20T07:07:59;99832.03;;;-5.78;100.00
74268;BME280;62638;51.362;12.472;2022-11-20T07:10:25;99830.09;;;-5.71;100.00
74268;BME280;62638;51.362;12.472;2022-11-20T07:12:52;99827.78;;;-5.56;100.00
74268;BME280;62638;51.362;12.472;2022-11-20T07:15:18;99839.06;;;-5.55;100.00
74268;BME280;62638;51.362;12.472;2022-11-20T07:17:44;99826.69;;;-5.48;100.00
74268;BME280;62638;51.362;12.472;2022-11-20T07:20:09;99828.19;;;-5.43;99.94
74268;BME280;62638;51.362;12.472;2022-11-20T07:22:35;99831.75;;;-5.44;100.00
74268;BME280;62638;51.362;12.472;2022-11-20T07:25:00;99843.53;;;-5.34;100.00
74268;BME280;62638;51.362;12.472;2022-11-20T07:27:26;99841.56;;;-5.27;99.63
74268;BME280;62638;51.362;12.472;2022-11-20T07:29:52;99832.56;;;-5.19;99.50
74268;BME280;62638;51.362;12.472;2022-11-20T07:32:17;99841.28;;;-5.20;99.37
74268;BME280;62638;51.362;12.472;2022-11-20T07:34:42;99830.22;;;-5.03;98.66
74268;BME280;62638;51.362;12.472;2022-11-20T07:37:08;99828.16;;;-4.95;98.21
74268;BME280;62638;51.362;12.472;2022-11-20T07:39:33;99827.13;;;-4.91;98.12
74268;BME280;62638;51.362;12.472;2022-11-20T07:41:58;99834.56;;;-4.80;97.61
74268;BME280;62638;51.362;12.472;2022-11-20T07:44:23;99843.09;;;-4.75;97.44
74268;BME280;62638;51.362;12.472;2022-11-20T07:46:49;99836.16;;;-4.76;97.18
74268;BME280;62638;51.362;12.472;2022-11-20T07:49:14;99842.78;;;-4.68;97.00
74268;BME280;62638;51.362;12.472;2022-11-20T07:51:39;99839.91;;;-4.62;96.63
74268;BME280;62638;51.362;12.472;2022-11-20T07:54:04;99844.75;;;-4.51;96.20
74268;BME280;62638;51.362;12.472;2022-11-20T07:56:30;99840.06;;;-4.43;95.73
74268;BME280;62638;51.362;12.472;2022-11-20T07:58:55;99836.66;;;-4.45;95.69
74268;BME280;62638;51.362;12.472;2022-11-20T08:01:20;99820.06;;;-4.44;95.74
74268;BME280;62638;51.362;12.472;2022-11-20T08:03:46;99827.16;;;-4.26;95.90
74268;BME280;62638;51.362;12.472;2022-11-20T08:06:11;99818.72;;;-4.10;95.56
74268;BME280;62638;51.362;12.472;2022-11-20T08:08:36;99817.28;;;-3.97;95.21
74268;BME280;62638;51.362;12.472;2022-11-20T08:11:03;99819.44;;;-3.87;95.02
74268;BME280;62638;51.362;12.472;2022-11-20T08:13:54;99825.53;;;-3.86;94.69
74268;BME280;62638;51.362;12.472;2022-11-20T08:16:40;99821.91;;;-3.84;94.28
74268;BME280;62638;51.362;12.472;2022-11-20T08:19:05;99830.84;;;-3.68;94.24
74268;BME280;62638;51.362;12.472;2022-11-20T08:21:31;99831.69;;;-3.67;94.24
74268;BME280;62638;51.362;12.472;2022-11-20T08:23:57;99831.50;;;-3.62;93.38
74268;BME280;62638;51.362;12.472;2022-11-20T08:26:23;99826.53;;;-3.69;92.74
74268;BME280;62638;51.362;12.472;2022-11-20T08:28:49;99827.88;;;-3.60;93.03
74268;BME280;62638;51.362;12.472;2022-11-20T08:31:14;99828.06;;;-3.44;92.96
74268;BME280;62638;51.362;12.472;2022-11-20T08:33:39;99828.56;;;-3.16;92.61
74268;BME280;62638;51.362;12.472;2022-11-20T08:36:06;99834.59;;;-3.34;91.23
74268;BME280;62638;51.362;12.472;2022-11-20T08:38:31;99832.88;;;-3.15;91.51
74268;BME280;62638;51.362;12.472;2022-11-20T08:40:58;99828.91;;;-3.05;91.51
74268;BME280;62638;51.362;12.472;2022-11-20T08:43:42;99831.94;;;-3.14;90.74
74268;BME280;62638;51.362;12.472;2022-11-20T08:46:07;99830.69;;;-2.87;90.93
74268;BME280;62638;51.362;12.472;2022-11-20T08:48:32;99838.63;;;-2.88;89.88
74268;BME280;62638;51.362;12.472;2022-11-20T08:50:58;99841.13;;;-2.85;89.61
74268;BME280;62638;51.362;12.472;2022-11-20T08:53:24;99846.00;;;-2.59;89.02
74268;BME280;62638;51.362;12.472;2022-11-20T08:55:49;99835.91;;;-2.49;89.72
74268;BME280;62638;51.362;12.472;2022-11-20T08:58:15;99841.03;;;-2.46;88.52
74268;BME280;62638;51.362;12.472;2022-11-20T09:00:40;99840.84;;;-2.60;88.47
74268;BME280;62638;51.362;12.472;2022-11-20T09:03:05;99837.78;;;-2.51;88.19
74268;BME280;62638;51.362;12.472;2022-11-20T09:05:31;99841.66;;;-2.41;88.98
74268;BME280;62638;51.362;12.472;2022-11-20T09:07:57;99840.09;;;-2.45;88.07
74268;BME280;62638;51.362;12.472;2022-11-20T09:10:22;99836.28;;;-2.38;88.16
74268;BME280;62638;51.362;12.472;2022-11-20T09:12:51;99833.88;;;-2.43;87.89
74268;BME280;62638;51.362;12.472;2022-11-20T09:15:17;99832.69;;;-2.18;88.13
74268;BME280;62638;51.362;12.472;2022-11-20T09:17:50;99830.66;;;-1.95;88.13
74268;BME280;62638;51.362;12.472;2022-11-20T09:20:16;99830.78;;;-1.98;87.13
74268;BME280;62638;51.362;12.472;2022-11-20T09:22:41;99828.81;;;-2.11;87.04
74268;BME280;62638;51.362;12.472;2022-11-20T09:25:07;99835.34;;;-1.84;87.09
74268;BME280;62638;51.362;12.472;2022-11-20T09:27:32;99838.97;;;-1.35;84.67
74268;BME280;62638;51.362;12.472;2022-11-20T09:29:57;99839.56;;;-1.30;84.54
74268;BME280;62638;51.362;12.472;2022-11-20T09:32:22;99839.25;;;-1.41;84.49
74268;BME280;62638;51.362;12.472;2022-11-20T09:34:48;99839.16;;;-1.22;85.53
74268;BME280;62638;51.362;12.472;2022-11-20T09:37:13;99843.06;;;-1.29;83.90
74268;BME280;62638;51.362;12.472;2022-11-20T09:39:38;99835.84;;;-1.26;84.18
74268;BME280;62638;51.362;12.472;2022-11-20T09:45:05;99829.38;;;-1.03;84.43
74268;BME280;62638;51.362;12.472;2022-11-20T09:48:05;99834.84;;;-1.23;85.20
74268;BME280;62638;51.362;12.472;2022-11-20T09:50:41;99826.53;;;-0.83;83.47
74268;BME280;62638;51.362;12.472;2022-11-20T09:53:16;99825.50;;;-0.80;83.82
74268;BME280;62638;51.362;12.472;2022-11-20T09:55:46;99816.16;;;-0.86;82.82
74268;BME280;62638;51.362;12.472;2022-11-20T09:58:34;99822.50;;;-1.06;83.50
74268;BME280;62638;51.362;12.472;2022-11-20T10:01:10;99824.56;;;-0.95;84.62
74268;BME280;62638;51.362;12.472;2022-11-20T10:06:04;99811.25;;;-0.92;83.17
74268;BME280;62638;51.362;12.472;2022-11-20T10:08:44;99811.84;;;-1.35;83.46
74268;BME280;62638;51.362;12.472;2022-11-20T10:11:32;99800.50;;;-1.20;83.52
74268;BME280;62638;51.362;12.472;2022-11-20T10:17:02;99792.31;;;-0.99;83.72
74268;BME280;62638;51.362;12.472;2022-11-20T10:25:26;99785.25;;;-0.65;83.21
74268;BME280;62638;51.362;12.472;2022-11-20T10:27:59;99786.34;;;-0.54;83.49
74268;BME280;62638;51.362;12.472;2022-11-20T10:30:30;99788.78;;;-0.35;82.52
74268;BME280;62638;51.362;12.472;2022-11-20T10:33:04;99787.84;;;-0.34;82.27
74268;BME280;62638;51.362;12.472;2022-11-20T10:38:30;99788.69;;;-0.18;82.19
74268;BME280;62638;51.362;12.472;2022-11-20T10:41:01;99780.59;;;-0.15;81.98
74268;BME280;62638;51.362;12.472;2022-11-20T10:43:46;99780.91;;;-0.05;82.38
74268;BME280;62638;51.362;12.472;2022-11-20T10:46:19;99785.47;;;0.65;80.36
74268;BME280;62638;51.362;12.472;2022-11-20T10:48:45;99783.22;;;0.15;80.37
74268;BME280;62638;51.362;12.472;2022-11-20T10:56:41;99780.19;;;0.37;82.83
74268;BME280;62638;51.362;12.472;2022-11-20T10:59:46;99773.78;;;0.41;79.91
74268;BME280;62638;51.362;12.472;2022-11-20T11:02:23;99770.72;;;0.19;81.10
74268;BME280;62638;51.362;12.472;2022-11-20T11:04:52;99768.38;;;-0.16;82.14
74268;BME280;62638;51.362;12.472;2022-11-20T11:07:24;99759.50;;;-0.60;83.09
74268;BME280;62638;51.362;12.472;2022-11-20T11:09:53;99752.69;;;-0.78;84.90
74268;BME280;62638;51.362;12.472;2022-11-20T11:12:21;99754.13;;;-0.88;84.82
74268;BME280;62638;51.362;12.472;2022-11-20T11:14:52;99757.81;;;-1.24;87.37
74268;BME280;62638;51.362;12.472;2022-11-20T11:17:24;99742.03;;;-1.40;87.94
74268;BME280;62638;51.362;12.472;2022-11-20T11:22:47;99727.50;;;-1.14;88.31
74268;BME280;62638;51.362;12.472;2022-11-20T11:25:33;99730.91;;;-0.35;85.25
74268;BME280;62638;51.362;12.472;2022-11-20T11:28:22;99731.91;;;-0.08;83.57
74268;BME280;62638;51.362;12.472;2022-11-20T11:30:46;99739.94;;;-0.09;82.08
74268;BME280;62638;51.362;12.472;2022-11-20T11:35:59;99729.88;;;-0.03;82.49
74268;BME280;62638;51.362;12.472;2022-11-20T11:38:34;99725.34;;;-0.15;82.23
74268;BME280;62638;51.362;12.472;2022-11-20T11:41:00;99731.97;;;0.07;81.76
74268;BME280;62638;51.362;12.472;2022-11-20T11:43:32;99727.75;;;0.04;81.45
74268;BME280;62638;51.362;12.472;2022-11-20T11:46:23;99726.91;;;0.18;81.36
74268;BME280;62638;51.362;12.472;2022-11-20T11:54:47;99716.09;;;0.79;79.60
74268;BME280;62638;51.362;12.472;2022-11-20T11:57:23;99721.56;;;0.62;79.40
74268;BME280;62638;51.362;12.472;2022-11-20T12:05:26;99729.19;;;0.38;79.22
74268;BME280;62638;51.362;12.472;2022-11-20T12:08:00;99721.84;;;0.29;79.43
74268;BME280;62638;51.362;12.472;2022-11-20T12:10:41;99721.50;;;0.05;80.17
74268;BME280;62638;51.362;12.472;2022-11-20T12:13:18;99714.81;;;0.29;79.43
74268;BME280;62638;51.362;12.472;2022-11-20T12:15:47;99718.69;;;-0.06;80.44
74268;BME280;62638;51.362;12.472;2022-11-20T12:18:18;99714.97;;;0.40;79.90
74268;BME280;62638;51.362;12.472;2022-11-20T12:31:59;99696.16;;;0.61;77.92
74268;BME280;62638;51.362;12.472;2022-11-20T12:37:37;99691.00;;;0.59;78.27
74268;BME280;62638;51.362;12.472;2022-11-20T12:40:27;99697.41;;;0.41;79.87
74268;BME280;62638;51.362;12.472;2022-11-20T12:43:14;99699.28;;;0.53;79.10
74268;BME280;62638;51.362;12.472;2022-11-20T12:46:27;99696.09;;;0.34;79.81
74268;BME280;62638;51.362;12.472;2022-11-20T12:54:46;99674.75;;;0.38;78.52
74268;BME280;62638;51.362;12.472;2022-11-20T12:57:29;99684.44;;;0.38;78.21
74268;BME280;62638;51.362;12.472;2022-11-20T13:08:24;99684.31;;;0.54;78.11
74268;BME280;62638;51.362;12.472;2022-11-20T13:11:27;99667.66;;;0.67;78.09
74268;BME280;62638;51.362;12.472;2022-11-20T13:19:14;99687.81;;;0.68;76.55
74268;BME280;62638;51.362;12.472;2022-11-20T13:21:48;99684.75;;;0.74;76.35
74268;BME280;62638;51.362;12.472;2022-11-20T13:27:04;99692.50;;;0.49;77.47
74268;BME280;62638;51.362;12.472;2022-11-20T13:29:31;99692.94;;;0.70;77.44
74268;BME280;62638;51.362;12.472;2022-11-20T13:32:05;99684.03;;;0.58;76.29
74268;BME280;62638;51.362;12.472;2022-11-20T13:34:31;99674.16;;;0.33;76.76
74268;BME280;62638;51.362;12.472;2022-11-20T13:36:58;99668.72;;;0.51;76.53
74268;BME280;62638;51.362;12.472;2022-11-20T13:39:36;99649.34;;;0.52;75.88
74268;BME280;62638;51.362;12.472;2022-11-20T13:44:42;99634.66;;;0.33;76.22
74268;BME280;62638;51.362;12.472;2022-11-20T13:47:24;99640.59;;;0.51;75.95
74268;BME280;62638;51.362;12.472;2022-11-20T13:49:51;99649.22;;;0.53;75.76
74268;BME280;62638;51.362;12.472;2022-11-20T13:55:44;99660.31;;;0.58;76.21
74268;BME280;62638;51.362;12.472;2022-11-20T14:03:29;99656.38;;;0.51;74.81
74268;BME280;62638;51.362;12.472;2022-11-20T14:06:04;99649.22;;;0.53;74.96
74268;BME280;62638;51.362;12.472;2022-11-20T14:08:35;99642.94;;;0.56;73.85
74268;BME280;62638;51.362;12.472;2022-11-20T14:11:25;99636.97;;;0.52;74.74
74268;BME280;62638;51.362;12.472;2022-11-20T14:13:56;99637.75;;;0.54;75.33
74268;BME280;62638;51.362;12.472;2022-11-20T14:16:23;99650.56;;;0.46;74.46
74268;BME280;62638;51.362;12.472;2022-11-20T14:18:49;99641.88;;;0.44;74.88
74268;BME280;62638;51.362;12.472;2022-11-20T14:21:28;99640.38;;;0.40;74.95
74268;BME280;62638;51.362;12.472;2022-11-20T14:24:03;99638.88;;;0.50;75.04
74268;BME280;62638;51.362;12.472;2022-11-20T14:26:29;99647.50;;;0.52;75.69
74268;BME280;62638;51.362;12.472;2022-11-20T14:28:55;99651.03;;;0.38;76.03